PTC weather

Port Alice Seaplane Base
Port Alice, Alaska, United States

Public forecast

Using degrees Fahrenheit for public forecast. Weather courtesy of forecast.io.

METAR (pilot weather report)

Closest report is Klawock Airport, 22.2 nm (41.1 km) SE. Retrieved 2019/07/21 21:53 UTC (25 minutes ago):

PAKW 212153Z AUTO 23007KT 200V280 10SM CLR 22/14 A3001 RMK SLP160 T02220139 TSNO VIA AUTODIAL

TAF (pilot weather forecast)

Closest forecast is Klawock Airport, 22.2 nm (41.1 km) SE. Retrieved 2019/07/21 18:36 UTC (4 hours ago):

TAF PAKW 211733Z 2118/2218 VRB03KT P6SM SCT005 SCT180 TEMPO 2118/2119 BKN004 FM211900 24006KT P6SM FEW010 BKN180 FM220500 20004KT P6SM FEW005 BKN100 FM220900 VRB02KT 3SM BR SCT002 BKN090 FM221600 03004KT P6SM FEW004 BKN090 AMD LTD TO CLD VIS AND WIND